Walkers Mill, Texas
Current Conditions -  °F | °C
As of 7:35 PM on Thursday 27 Nov 2014 (Local Time) from KASL Reporting Station
Clear Clear  
Wind Chill: 41°   Ceiling: Unl
Heat Index: 41°   Visibility: 10mi
Dew Point: 35°   Wind: 0mph
Humidity: 80%   Direction: NA
Pressure: 30.45"   Gusts: NA
Location:  32.4986°N, 94.513°W
Report Text: KASL 280135Z AUTO 00000KT 10SM CLR 05/02 A3045 RMK AO1 T00490018
Loading
Personal Weather Stations






























Interactive Weather Map New forecast layout! Learn more

10-Day Weather Forecast

Advertisements
Track Severe Weather on mobile